Hauptseite
METAR-TAF:

METAR-TAF

Flughäfen :

Grenchen, Schweiz

Flughafen Grenchen

Breite: 47-10-53N, Länge: 007-24-59E, Höhe: 430 m

Beobachtung

Neuester Wetterbericht von vor 34 Minuten, um 10:50 UTC
Wind 2 kt aus Süd/Südwest
Temperatur 8°C
Luftfeuchtigkeit 87%
Luftdruck 1015 hPa
Sichtweite 10 km oder mehr
keine Wolken unter 1500 m und keine Kumulonimbus oder Gewitterwolken

METAR: LSZG 231050Z 20002KT CAVOK 08/06 Q1015 NOSIG

Zeit: 12:24 (11:24 UTC)

Prognose

Neuester Wetterbericht von vor 2 Stunden und 59 Minuten, um 08:25 UTC
Gültige Prognose vom 23 um 09 UTC bis 23 um 18 UTC
Wind 3 kt aus unterschiedlichen Richtungen
Sichtweite: 5000 m
feuchter Dunst
Übergehend zu
vom 23 um 09 UTC bis 23 um 11 UTC
Sichtweite 10 km oder mehr
keine Wolken unter 1500 m und keine Kumulonimbus oder Gewitterwolken

TAF: LSZG 230825Z 2309/2318 VRB03KT 5000 BR NSC BECMG 2309/2311 CAVOK

Wetterbeobachtungen und Prognosen von mehr als 4000 Flughäfen (METAR und TAF Bericht).

Die verfügbaren Stationen werden durch gelbe und rote Markierungen auf der Karte dargestellt.

Führen Sie die Maus auf sie, um den Namen der Station zu sehen.

Darauf klicken, um die Beobachtung von Wetterbeobachtungen und Prognosen zu sehen.

Um die Karte zu ändern : klicken Sie auf den grünen Tasten mit einem schwarzen Kreuz Zum Vergrößern, auf den grünen Button mit einem Gedankenstrich zu verkleinern, oder auf die grünen Pfeile für benachbarte Karten.


METAR-TAF: